createdAt,value
2018-06-11T00:00:20.397Z,20.13
2018-06-11T00:02:48.774Z,22.27
2018-06-11T00:05:17.190Z,19.83
2018-06-11T00:07:45.612Z,18.87
2018-06-11T00:10:14.369Z,19.17
2018-06-11T00:12:43.151Z,17.23
2018-06-11T00:15:11.997Z,17.90
2018-06-11T00:17:40.397Z,16.53
2018-06-11T00:20:08.931Z,16.63
2018-06-11T00:22:37.321Z,16.63
2018-06-11T00:25:06.659Z,15.67
2018-06-11T00:27:35.500Z,16.87
2018-06-11T00:30:04.387Z,16.10
2018-06-11T00:32:33.206Z,17.47
2018-06-11T00:35:02.024Z,19.03
2018-06-11T00:37:30.429Z,18.93
2018-06-11T00:39:58.821Z,18.50
2018-06-11T00:42:27.613Z,15.20
2018-06-11T00:44:56.070Z,15.73
2018-06-11T00:47:24.488Z,14.00
2018-06-11T00:49:52.835Z,14.50
2018-06-11T00:52:21.714Z,13.93
2018-06-11T00:54:50.545Z,16.43
2018-06-11T00:57:19.296Z,16.03
2018-06-11T00:59:47.782Z,15.57
2018-06-11T01:02:16.646Z,17.77
2018-06-11T01:04:45.050Z,17.50
2018-06-11T01:07:13.856Z,12.50
2018-06-11T01:09:42.617Z,15.27
2018-06-11T01:12:11.080Z,11.87
2018-06-11T01:14:39.900Z,13.57
2018-06-11T01:17:08.330Z,12.73
2018-06-11T01:19:37.212Z,15.77
2018-06-11T01:22:06.144Z,11.17
2018-06-11T01:24:35.061Z,12.30
2018-06-11T01:27:04.113Z,12.00
2018-06-11T01:29:32.522Z,12.47
2018-06-11T01:32:01.332Z,17.77
2018-06-11T01:34:29.729Z,13.13
2018-06-11T01:36:58.548Z,12.60
2018-06-11T01:39:27.034Z,12.53
2018-06-11T01:41:55.866Z,12.57
2018-06-11T01:44:24.731Z,12.47
2018-06-11T01:46:53.209Z,20.53
2018-06-11T01:49:22.062Z,17.60
2018-06-11T01:51:50.513Z,14.90
2018-06-11T01:54:18.947Z,15.30
2018-06-11T01:56:47.815Z,11.63
2018-06-11T01:59:16.642Z,13.23
2018-06-11T02:01:45.545Z,12.33
2018-06-11T02:04:14.336Z,13.13
2018-06-11T02:06:43.288Z,11.60
2018-06-11T02:09:12.101Z,11.60
2018-06-11T02:11:40.528Z,14.33
2018-06-11T02:14:08.948Z,14.90
2018-06-11T02:16:37.855Z,11.40
2018-06-11T02:19:06.347Z,12.83
2018-06-11T02:21:34.770Z,11.70
2018-06-11T02:24:03.183Z,10.97
2018-06-11T02:26:31.643Z,13.30
2018-06-11T02:29:00.425Z,11.10
2018-06-11T02:31:28.874Z,14.90
2018-06-11T02:33:57.695Z,15.40
2018-06-11T02:36:26.455Z,13.50
2018-06-11T02:38:54.898Z,13.77
2018-06-11T02:41:23.735Z,11.93
2018-06-11T02:43:52.154Z,14.93
2018-06-11T02:46:21.109Z,11.83
2018-06-11T02:48:50.407Z,12.03
2018-06-11T02:51:19.211Z,12.10
2018-06-11T02:53:47.639Z,12.13
2018-06-11T02:56:16.480Z,12.33
2018-06-11T02:58:45.261Z,11.20
2018-06-11T03:01:36.775Z,10.80
2018-06-11T03:04:05.244Z,9.73
2018-06-11T03:06:33.775Z,9.67
2018-06-11T03:09:02.160Z,10.60
2018-06-11T03:11:30.555Z,9.10
2018-06-11T03:13:58.995Z,9.93
2018-06-11T03:16:27.735Z,10.53
2018-06-11T03:18:56.542Z,9.63
2018-06-11T03:21:24.937Z,10.80
2018-06-11T03:23:53.759Z,10.57
2018-06-11T03:26:22.210Z,11.13
2018-06-11T03:28:51.003Z,10.30
2018-06-11T03:31:19.813Z,10.80
2018-06-11T03:33:48.254Z,10.80
2018-06-11T03:36:17.016Z,11.13
2018-06-11T03:38:45.948Z,12.03
2018-06-11T03:41:14.306Z,12.23
2018-06-11T03:43:43.187Z,12.03
2018-06-11T03:46:11.685Z,14.83
2018-06-11T03:48:40.159Z,15.77
2018-06-11T03:51:20.719Z,12.63
2018-06-11T03:53:49.487Z,13.80
2018-06-11T03:56:18.319Z,17.33
2018-06-11T03:58:46.767Z,14.70
2018-06-11T04:01:15.208Z,12.53
2018-06-11T04:03:44.001Z,11.90
2018-06-11T04:06:12.814Z,13.03
2018-06-11T04:08:41.266Z,13.30
2018-06-11T04:11:10.189Z,13.07
2018-06-11T04:13:38.954Z,14.47
2018-06-11T04:16:07.338Z,11.53
2018-06-11T04:18:35.767Z,11.23
2018-06-11T04:21:04.603Z,12.60
2018-06-11T04:23:33.451Z,9.87
2018-06-11T04:26:02.221Z,10.00
2018-06-11T04:28:31.032Z,10.53
2018-06-11T04:30:59.424Z,10.10
2018-06-11T04:33:27.847Z,8.20
2018-06-11T04:35:56.263Z,10.03
2018-06-11T04:38:24.689Z,10.83
2018-06-11T04:40:53.437Z,7.10
2018-06-11T04:43:22.265Z,9.30
2018-06-11T04:45:50.671Z,7.73
2018-06-11T04:48:19.492Z,10.37
2018-06-11T04:50:47.931Z,11.73
2018-06-11T04:53:16.704Z,6.60
2018-06-11T04:55:45.528Z,8.37
2018-06-11T04:58:14.320Z,8.63
2018-06-11T05:00:42.771Z,10.07
2018-06-11T05:03:11.562Z,9.50
2018-06-11T05:05:39.950Z,9.03
2018-06-11T05:08:08.836Z,10.53
2018-06-11T05:10:37.675Z,8.60
2018-06-11T05:13:06.108Z,8.27
2018-06-11T05:15:34.651Z,12.47
2018-06-11T05:18:03.455Z,8.43
2018-06-11T05:20:32.154Z,10.07
2018-06-11T05:23:00.572Z,14.07
2018-06-11T05:25:29.003Z,13.13
2018-06-11T05:27:57.387Z,17.07
2018-06-11T05:30:27.301Z,11.47
2018-06-11T05:32:56.136Z,16.30
2018-06-11T05:35:24.545Z,12.23
2018-06-11T05:37:53.526Z,8.63
2018-06-11T05:40:22.364Z,13.13
2018-06-11T05:42:50.822Z,9.23
2018-06-11T05:45:20.485Z,13.27
2018-06-11T05:47:49.379Z,10.47
2018-06-11T05:50:18.975Z,10.40
2018-06-11T05:52:47.401Z,10.47
2018-06-11T05:55:16.449Z,9.90
2018-06-11T05:57:44.871Z,8.87
2018-06-11T06:00:14.669Z,9.30
2018-06-11T06:02:43.174Z,11.90
2018-06-11T06:05:12.170Z,10.33
2018-06-11T06:07:40.564Z,10.37
2018-06-11T06:10:09.403Z,13.80
2018-06-11T06:12:39.533Z,11.80
2018-06-11T06:15:07.952Z,10.23
2018-06-11T06:17:36.747Z,10.80
2018-06-11T06:20:05.852Z,10.23
2018-06-11T06:22:34.784Z,12.87
2018-06-11T06:25:03.263Z,17.87
2018-06-11T06:27:31.672Z,16.13
2018-06-11T06:30:00.121Z,15.23
2018-06-11T06:32:28.495Z,17.07
2018-06-11T06:34:57.014Z,18.57
2018-06-11T06:37:25.349Z,18.90
2018-06-11T06:39:54.188Z,20.33
2018-06-11T06:42:22.634Z,21.13
2018-06-11T06:44:51.544Z,20.57
2018-06-11T06:47:20.023Z,20.23
2018-06-11T06:49:48.854Z,18.67
2018-06-11T06:52:17.679Z,22.47
2018-06-11T06:54:46.481Z,22.03
2018-06-11T06:57:15.336Z,20.13
2018-06-11T06:59:44.083Z,17.37
2018-06-11T07:02:12.548Z,17.30
2018-06-11T07:04:41.346Z,19.47
2018-06-11T07:07:10.226Z,19.37
2018-06-11T07:09:39.100Z,16.23
2018-06-11T07:12:07.932Z,16.13
2018-06-11T07:14:36.774Z,17.67
2018-06-11T07:17:05.546Z,19.30
2018-06-11T07:19:34.404Z,16.37
2018-06-11T07:22:03.282Z,16.73
2018-06-11T07:24:32.100Z,14.90
2018-06-11T07:27:00.927Z,13.53
2018-06-11T07:29:29.367Z,11.60
2018-06-11T07:31:58.210Z,11.67
2018-06-11T07:34:27.019Z,15.70
2018-06-11T07:36:55.474Z,14.23
2018-06-11T07:39:24.259Z,16.80
2018-06-11T07:41:53.089Z,12.93
2018-06-11T07:44:22.305Z,12.30
2018-06-11T07:46:51.160Z,16.13
2018-06-11T07:49:20.006Z,14.90
2018-06-11T08:06:35.014Z,8.70
2018-06-11T08:38:38.439Z,9.17
2018-06-11T08:41:08.241Z,8.70
2018-06-11T08:46:05.697Z,11.57
2018-06-11T08:48:34.102Z,10.50
2018-06-11T08:51:02.554Z,11.23
2018-06-11T08:53:30.957Z,9.27
2018-06-11T08:55:59.779Z,11.30
2018-06-11T08:58:28.601Z,11.80
2018-06-11T09:00:57.388Z,10.50
2018-06-11T09:03:26.185Z,11.67
2018-06-11T09:05:55.143Z,10.77
2018-06-11T09:08:23.985Z,15.43
2018-06-11T09:10:53.444Z,11.83
2018-06-11T09:13:22.286Z,11.70
2018-06-11T09:15:51.136Z,12.33
2018-06-11T09:18:20.229Z,11.70
2018-06-11T09:20:50.917Z,11.63
2018-06-11T09:23:19.759Z,12.77
2018-06-11T09:25:48.163Z,12.53
2018-06-11T09:28:16.926Z,13.40
2018-06-11T09:30:45.820Z,14.47
2018-06-11T09:33:14.887Z,11.70
2018-06-11T09:35:43.723Z,10.90
2018-06-11T09:38:12.574Z,11.87
2018-06-11T09:40:42.224Z,9.93
2018-06-11T09:43:11.828Z,10.73
2018-06-11T09:45:40.822Z,11.63
2018-06-11T09:48:09.992Z,11.20
2018-06-11T09:50:38.962Z,12.07
2018-06-11T09:53:07.885Z,11.20
2018-06-11T09:55:36.645Z,8.93
2018-06-11T09:58:05.503Z,11.30
2018-06-11T10:00:37.540Z,10.83
2018-06-11T10:03:05.974Z,11.33
2018-06-11T10:05:34.742Z,9.73
2018-06-11T10:08:03.594Z,10.57
2018-06-11T10:10:32.671Z,9.73
2018-06-11T10:13:01.517Z,9.77
2018-06-11T10:15:30.532Z,9.33
2018-06-11T10:18:00.110Z,10.60
2018-06-11T10:20:29.812Z,10.20
2018-06-11T10:22:58.402Z,13.70
2018-06-11T10:25:28.370Z,11.20
2018-06-11T10:27:56.774Z,10.77
2018-06-11T10:30:25.592Z,10.17
2018-06-11T10:32:53.967Z,9.27
2018-06-11T10:35:22.777Z,10.50
2018-06-11T10:37:51.610Z,9.50
2018-06-11T10:40:20.401Z,10.03
2018-06-11T10:42:48.806Z,10.20
2018-06-11T10:45:17.609Z,10.80
2018-06-11T10:47:46.059Z,10.70
2018-06-11T10:50:14.900Z,10.50
2018-06-11T10:52:43.825Z,9.40
2018-06-11T10:55:12.251Z,9.87
2018-06-11T10:57:41.044Z,14.90
2018-06-11T11:00:09.900Z,10.83
2018-06-11T11:02:38.325Z,9.77
2018-06-11T11:05:07.141Z,9.73
2018-06-11T11:07:35.998Z,11.37
2018-06-11T11:10:04.883Z,9.33
2018-06-11T11:12:34.040Z,10.40
2018-06-11T11:15:02.883Z,9.03
2018-06-11T11:17:31.688Z,10.43
2018-06-11T11:20:00.580Z,11.47
2018-06-11T11:22:28.961Z,11.10
2018-06-11T11:24:57.746Z,8.47
2018-06-11T11:27:26.557Z,9.63
2018-06-11T11:29:55.489Z,9.17
2018-06-11T11:32:24.321Z,8.10
2018-06-11T11:34:53.100Z,10.17
2018-06-11T11:37:21.479Z,12.27
2018-06-11T11:39:50.292Z,8.50
2018-06-11T11:42:18.691Z,11.00
2018-06-11T11:44:47.136Z,10.97
2018-06-11T11:47:15.938Z,8.47
2018-06-11T11:49:44.753Z,8.63
2018-06-11T11:52:13.324Z,12.57
2018-06-11T11:54:42.144Z,13.03
2018-06-11T11:57:10.540Z,8.13
2018-06-11T11:59:39.358Z,8.87
2018-06-11T12:02:08.101Z,7.60
2018-06-11T12:04:36.904Z,8.63
2018-06-11T12:07:05.294Z,8.73
2018-06-11T12:09:34.246Z,9.53
2018-06-11T12:12:03.021Z,9.10
2018-06-11T12:14:31.446Z,9.03
2018-06-11T12:17:00.282Z,10.00
2018-06-11T12:19:29.092Z,9.97
2018-06-11T12:21:57.931Z,10.03
2018-06-11T12:24:26.754Z,8.57
2018-06-11T12:26:55.608Z,8.47
2018-06-11T12:29:24.418Z,9.50
2018-06-11T12:31:53.258Z,10.10
2018-06-11T12:34:22.039Z,8.03
2018-06-11T12:36:50.845Z,11.37
2018-06-11T12:39:19.669Z,8.87
2018-06-11T12:41:48.475Z,9.17
2018-06-11T12:44:17.330Z,13.10
2018-06-11T12:46:46.103Z,9.37
2018-06-11T12:49:14.531Z,9.40
2018-06-11T12:51:42.945Z,7.33
2018-06-11T12:54:11.906Z,8.83
2018-06-11T12:56:40.318Z,7.10
2018-06-11T12:59:09.151Z,8.37
2018-06-11T13:01:37.569Z,10.40
2018-06-11T13:04:06.390Z,10.63
2018-06-11T13:06:35.244Z,10.90
2018-06-11T13:09:05.776Z,8.13
2018-06-11T13:11:34.628Z,8.70
2018-06-11T13:14:03.616Z,11.43
2018-06-11T13:16:32.381Z,9.50
2018-06-11T13:19:01.186Z,8.43
2018-06-11T13:21:29.597Z,8.80
2018-06-11T13:23:58.414Z,8.57
2018-06-11T13:26:26.841Z,6.53
2018-06-11T13:28:55.251Z,10.33
2018-06-11T13:31:24.054Z,9.43
2018-06-11T13:33:52.482Z,8.23
2018-06-11T13:36:20.898Z,10.80
2018-06-11T13:38:49.717Z,8.83
2018-06-11T13:41:18.498Z,6.80
2018-06-11T13:43:47.314Z,7.33
2018-06-11T13:46:15.686Z,8.80
2018-06-11T13:48:44.486Z,9.37
2018-06-11T13:51:12.912Z,7.17
2018-06-11T13:53:41.318Z,8.83
2018-06-11T13:56:10.100Z,9.13
2018-06-11T13:58:38.884Z,8.10
2018-06-11T14:01:07.740Z,11.13
2018-06-11T14:03:36.469Z,9.90
2018-06-11T14:06:05.026Z,12.27
2018-06-11T14:08:33.433Z,12.00
2018-06-11T14:11:02.208Z,9.93
2018-06-11T14:13:31.038Z,7.13
2018-06-11T14:15:59.449Z,8.33
2018-06-11T14:18:28.284Z,10.70
2018-06-11T14:20:57.073Z,9.17
2018-06-11T14:23:25.875Z,6.93
2018-06-11T14:25:54.641Z,8.53
2018-06-11T14:28:23.472Z,6.87
2018-06-11T14:30:51.891Z,13.70
2018-06-11T14:33:20.724Z,7.70
2018-06-11T14:35:49.535Z,9.37
2018-06-11T14:38:18.280Z,7.80
2018-06-11T14:40:47.098Z,7.13
2018-06-11T14:43:15.892Z,7.93
2018-06-11T14:45:44.421Z,6.50
2018-06-11T14:48:12.801Z,6.80
2018-06-11T14:50:41.206Z,7.63
2018-06-11T14:53:10.034Z,8.93
2018-06-11T14:55:38.823Z,11.47
2018-06-11T14:58:07.246Z,6.83
2018-06-11T15:00:35.690Z,8.00
2018-06-11T15:03:04.117Z,8.43
2018-06-11T15:05:32.522Z,9.87
2018-06-11T15:08:01.358Z,7.97
2018-06-11T15:10:32.296Z,7.57
2018-06-11T15:17:56.984Z,7.93
2018-06-11T15:20:25.445Z,9.60
2018-06-11T15:22:53.841Z,7.60
2018-06-11T15:25:22.627Z,8.13
2018-06-11T15:27:51.434Z,12.83
2018-06-11T15:30:20.231Z,6.20
2018-06-11T15:32:48.671Z,10.47
2018-06-11T15:35:17.496Z,11.90
2018-06-11T15:37:46.267Z,7.03
2018-06-11T15:40:15.165Z,9.70
2018-06-11T15:42:43.565Z,10.17
2018-06-11T15:45:12.377Z,7.40
2018-06-11T15:47:41.193Z,6.60
2018-06-11T15:50:09.580Z,7.47
2018-06-11T15:52:38.568Z,7.37
2018-06-11T15:55:07.483Z,7.30
2018-06-11T15:57:35.843Z,10.77
2018-06-11T16:00:04.973Z,11.47
2018-06-11T16:02:33.374Z,7.87
2018-06-11T16:05:02.235Z,7.43
2018-06-11T16:07:30.996Z,9.67
2018-06-11T16:09:59.897Z,7.47
2018-06-11T16:12:28.657Z,12.10
2018-06-11T16:14:57.450Z,6.93
2018-06-11T16:17:26.257Z,7.07
2018-06-11T16:19:54.709Z,7.13
2018-06-11T16:22:23.170Z,9.93
2018-06-11T16:24:51.944Z,5.50
2018-06-11T16:27:20.789Z,10.10
2018-06-11T16:29:49.540Z,9.23
2018-06-11T16:32:18.391Z,7.10
2018-06-11T16:34:47.154Z,7.20
2018-06-11T16:37:16.091Z,7.63
2018-06-11T16:39:44.838Z,5.50
2018-06-11T16:42:13.328Z,5.87
2018-06-11T16:44:41.815Z,8.73
2018-06-11T16:47:10.619Z,7.83
2018-06-11T16:49:39.511Z,7.57
2018-06-11T16:52:07.958Z,10.77
2018-06-11T16:54:36.884Z,7.33
2018-06-11T16:57:06.336Z,11.50
2018-06-11T16:59:34.726Z,6.03
2018-06-11T17:02:03.559Z,7.57
2018-06-11T17:04:32.359Z,6.53
2018-06-11T17:07:00.769Z,7.77
2018-06-11T17:09:29.322Z,10.90
2018-06-11T17:11:58.401Z,6.10
2018-06-11T17:14:27.223Z,5.70
2018-06-11T17:16:56.785Z,6.03
2018-06-11T17:19:26.060Z,8.10
2018-06-11T17:21:54.844Z,9.33
2018-06-11T17:24:24.212Z,8.23
2018-06-11T17:26:53.057Z,6.57
2018-06-11T17:29:22.390Z,6.23
2018-06-11T17:31:51.601Z,6.37
2018-06-11T17:34:20.392Z,5.07
2018-06-11T17:36:49.289Z,12.90
2018-06-11T17:39:17.838Z,10.10
2018-06-11T17:41:46.277Z,8.10
2018-06-11T17:44:14.996Z,7.47
2018-06-11T17:46:44.275Z,7.07
2018-06-11T17:49:13.076Z,10.37
2018-06-11T17:51:41.914Z,5.33
2018-06-11T17:54:11.653Z,9.03
2018-06-11T17:56:40.162Z,6.87
2018-06-11T17:59:08.596Z,12.57
2018-06-11T18:01:37.045Z,6.90
2018-06-11T18:04:06.450Z,8.13
2018-06-11T18:06:36.497Z,7.33
2018-06-11T18:09:07.947Z,7.43
2018-06-11T18:11:36.526Z,5.23
2018-06-11T18:14:05.827Z,8.20
2018-06-11T18:16:34.219Z,7.67
2018-06-11T18:19:03.105Z,8.57
2018-06-11T18:21:31.978Z,8.47
2018-06-11T18:24:01.836Z,6.37
2018-06-11T18:26:30.342Z,9.27
2018-06-11T18:28:58.769Z,9.07
2018-06-11T18:31:27.554Z,6.77
2018-06-11T18:33:57.630Z,6.70
2018-06-11T18:36:26.098Z,7.67
2018-06-11T18:38:54.490Z,7.63
2018-06-11T18:41:22.938Z,9.03
2018-06-11T18:43:54.264Z,8.07
2018-06-11T18:46:24.322Z,10.53
2018-06-11T18:48:52.696Z,9.67
2018-06-11T18:51:21.797Z,7.33
2018-06-11T18:53:50.253Z,6.57
2018-06-11T18:56:19.694Z,7.83
2018-06-11T18:58:49.195Z,12.87
2018-06-11T19:01:17.637Z,8.07
2018-06-11T19:03:47.668Z,6.23
2018-06-11T19:06:16.160Z,10.17
2018-06-11T19:08:44.943Z,12.07
2018-06-11T19:11:13.330Z,7.50
2018-06-11T19:13:41.972Z,7.63
2018-06-11T19:16:10.389Z,9.60
2018-06-11T19:18:38.821Z,10.07
2018-06-11T19:21:07.982Z,9.97
2018-06-11T19:23:36.380Z,8.50
2018-06-11T19:26:04.766Z,6.30
2018-06-11T19:55:38.604Z,8.17
2018-06-11T19:58:07.545Z,8.60
2018-06-11T20:00:36.020Z,8.60
2018-06-11T20:03:04.412Z,10.43
2018-06-11T20:05:33.210Z,10.17
2018-06-11T20:08:02.075Z,35.07
2018-06-11T20:10:30.929Z,20.50
2018-06-11T20:35:09.357Z,8.00
2018-06-11T20:37:37.781Z,13.33
2018-06-11T20:40:06.667Z,9.63
2018-06-11T20:42:35.735Z,11.50
2018-06-11T20:45:04.543Z,10.70
2018-06-11T20:47:33.374Z,9.17
2018-06-11T20:50:02.200Z,9.23
2018-06-11T20:52:31.074Z,11.93
2018-06-11T20:54:59.956Z,12.77
2018-06-11T20:57:28.407Z,11.33
2018-06-11T20:59:57.227Z,10.93
2018-06-11T21:02:25.672Z,11.23
2018-06-11T21:04:54.111Z,9.83
2018-06-11T21:07:22.560Z,11.77
2018-06-11T21:09:51.002Z,11.03
2018-06-11T21:12:19.382Z,11.40
2018-06-11T21:14:47.902Z,17.20
2018-06-11T21:17:16.321Z,12.43
2018-06-11T21:19:44.727Z,11.87
2018-06-11T21:22:13.522Z,12.43
2018-06-11T21:24:41.935Z,13.20
2018-06-11T21:27:10.743Z,17.80
2018-06-11T21:29:39.540Z,14.27
2018-06-11T21:32:07.958Z,12.43
2018-06-11T21:34:36.763Z,12.37
2018-06-11T21:37:05.325Z,18.57
2018-06-11T21:39:34.146Z,17.87
2018-06-11T21:42:02.924Z,12.97
2018-06-11T21:44:31.371Z,13.57
2018-06-11T21:46:59.771Z,18.60
2018-06-11T21:49:28.563Z,14.93
2018-06-11T21:51:57.421Z,15.20
2018-06-11T21:54:26.249Z,13.83
2018-06-11T21:56:54.961Z,14.70
2018-06-11T21:59:23.806Z,15.97
2018-06-11T22:01:52.647Z,14.23
2018-06-11T22:04:21.562Z,14.70
2018-06-11T22:06:49.982Z,13.80
2018-06-11T22:09:18.462Z,13.67
2018-06-11T22:11:46.901Z,13.27
2018-06-11T22:14:15.304Z,13.17
2018-06-11T22:16:44.221Z,12.23
2018-06-11T22:19:13.032Z,12.40
2018-06-11T22:21:41.461Z,13.77
2018-06-11T22:24:10.296Z,15.97
2018-06-11T22:26:38.709Z,15.57
2018-06-11T22:29:07.104Z,17.80
2018-06-11T22:31:35.504Z,18.93
2018-06-11T22:34:03.945Z,15.53
2018-06-11T22:36:32.364Z,14.50
2018-06-11T22:39:01.210Z,17.40
2018-06-11T22:41:29.664Z,17.63
2018-06-11T22:43:58.486Z,17.10
2018-06-11T22:46:26.910Z,19.23
2018-06-11T22:48:55.751Z,17.07
2018-06-11T22:51:24.183Z,18.87
2018-06-11T22:53:53.326Z,17.97
2018-06-11T22:56:21.759Z,17.27
2018-06-11T22:58:50.552Z,17.20
2018-06-11T23:01:19.331Z,16.27
2018-06-11T23:03:48.152Z,16.60
2018-06-11T23:06:16.976Z,16.33
2018-06-11T23:08:45.400Z,20.57
2018-06-11T23:11:14.242Z,15.10
2018-06-11T23:13:43.108Z,15.40
2018-06-11T23:16:11.898Z,18.47
2018-06-11T23:18:40.310Z,18.77
2018-06-11T23:21:09.594Z,18.70
2018-06-11T23:23:38.488Z,14.47
2018-06-11T23:26:07.278Z,15.77
2018-06-11T23:28:36.119Z,23.40
2018-06-11T23:31:04.537Z,18.20
2018-06-11T23:33:32.990Z,19.37
2018-06-11T23:36:01.789Z,18.07
2018-06-11T23:38:30.233Z,22.00
2018-06-11T23:40:58.621Z,17.20
2018-06-11T23:43:27.052Z,18.67
2018-06-11T23:45:55.486Z,19.57
2018-06-11T23:48:24.330Z,18.80
2018-06-11T23:50:53.048Z,18.17
2018-06-11T23:53:21.480Z,18.77
2018-06-11T23:55:50.300Z,18.87
2018-06-11T23:58:19.162Z,17.93
